This is the latest recevied weather packets stored in our database for station/object KG5MMT-15. If no packets are shown the sender has not sent any weather packets the latest 1 day(s).
| Time | Temp. | Humidity | Pressure | Rain* | Wind** | Luminosity | Snow |
|---|---|---|---|---|---|---|---|
| 1777999937 | 13.89° C | 40% | 0 hPa | 0 mm | 2.24 m/s, 293° | - | - |
| 1777999637 | 13.33° C | 41% | 0 hPa | 0 mm | 3.58 m/s, 310° | - | - |
| 1777999337 | 13.89° C | 40% | 0 hPa | 0 mm | 1.34 m/s, 108° | - | - |
| 1777999037 | 13.89° C | 40% | 0 hPa | 0 mm | 0.89 m/s, 215° | - | - |
| 1777998737 | 13.89° C | 39% | 0 hPa | 0 mm | 1.34 m/s, 303° | - | - |
| 1777998437 | 13.89° C | 39% | 0 hPa | 0 mm | 1.34 m/s, 137° | - | - |
| 1777998137 | 13.89° C | 40% | 0 hPa | 0 mm | 1.34 m/s, 234° | - | - |
| 1777997837 | 13.33° C | 39% | 0 hPa | 0 mm | 1.34 m/s, 338° | - | - |
| 1777997537 | 13.89° C | 39% | 0 hPa | 0 mm | 1.34 m/s, 284° | - | - |
| 1777997237 | 13.89° C | 39% | 0 hPa | 0 mm | 0.89 m/s, 160° | - | - |
| 1777996937 | 13.89° C | 39% | 0 hPa | 0 mm | 1.79 m/s, 319° | - | - |
| 1777996637 | 13.89° C | 38% | 0 hPa | 0 mm | 2.24 m/s, 337° | - | - |
| 1777996337 | 14.44° C | 39% | 0 hPa | 0 mm | 1.79 m/s, 358° | - | - |
| 1777996037 | 13.89° C | 37% | 0 hPa | 0 mm | 0.45 m/s, 275° | - | - |
| 1777995737 | 13.89° C | 36% | 0 hPa | 0 mm | 2.68 m/s, 289° | - | - |
| 1777995437 | 14.44° C | 37% | 0 hPa | 0 mm | 2.68 m/s, 160° | - | - |
| 1777995137 | 13.89° C | 36% | 0 hPa | 0 mm | 3.58 m/s, 316° | - | - |
| 1777994837 | 13.89° C | 38% | 0 hPa | 0 mm | 1.34 m/s, 36° | - | - |
| 1777994537 | 13.33° C | 39% | 0 hPa | 0 mm | 2.24 m/s, 254° | - | - |
| 1777994237 | 13.33° C | 38% | 0 hPa | 0 mm | 0.89 m/s, 333° | - | - |
| 1777993937 | 13.33° C | 37% | 0 hPa | 0 mm | 1.79 m/s, 219° | - | - |
| 1777993637 | 13.33° C | 37% | 0 hPa | 0 mm | 3.13 m/s, 357° | - | - |
| 1777993337 | 12.78° C | 36% | 0 hPa | 0 mm | 2.24 m/s, 324° | - | - |
| 1777993046 | 12.78° C | 34% | 0 hPa | 0 mm | 1.79 m/s, 53° | - | - |
| 1777992737 | 13.33° C | 33% | 0 hPa | 0 mm | 0 m/s | - | - |
* Rain latest hour (hover to see other rain measurements)
** Current wind speed in m/s (hover to see current wind gust speed)